»·PEaware :: SIA877 RCTP-WSSS

SIA877 :: RCTP-WSSS

FLIGHT INFORMATION

Flight Status: Arrived
Operator:
Singapore Airlines
More flights by this operator :: More flights under this callsign
Pilot: Anonymous 14085 (14085)
Aircraft: AIRBUS A330
(A330)
More flights by this aircraft type
Origin: RCTP Chiang Kai Shek Intl
Taiwan
Destination: WSSS Changi
Singapore
More flights between these airports :: More routes between these airports
Route: AJ1G PARPA A577 KABAM N892 MIGUG/K0843S1220 N892 MONBO/K0843F400 N892 MELAS/N0450F400 N892 MABAL MABA2A
File this flight plan on PilotEdge
Remarks:
Altitude:
(Current/Filed)
40,000ft
Speed:
(Current/Filed)
450kts
Departed: 13-Jun-17 06:10 PM
Arrived: 13-Jun-17 07:26 PM
Distance/Time
Traveled:
1738nm/1:16
Distance/Time
To Go:
Arrived

Flight Plot

Page will automatically refresh every two minutes.

Flight plan parsing failed; only flown route is shown


Map Options




Map Legend


Flown Route
Filed Route
Departure Airport
Arrival Airport
Navaid (VOR, NDB)
Fix

Horizontal Profiles

Position Reports

Time Latitude Longitude Heading Altitude Ground
Speed
13-Jun-17 18:11 11.644625 111.348421 213 39914ft 484kts
13-Jun-17 18:12 11.535655 111.269599 213 39915ft 484kts
13-Jun-17 18:13 11.426214 111.190648 213 39914ft 484kts
13-Jun-17 18:14 11.316834 111.111823 213 39914ft 484kts
13-Jun-17 18:15 11.207363 111.033980 213 39915ft 484kts
13-Jun-17 18:17 11.097225 110.955853 213 39915ft 484kts
13-Jun-17 18:18 10.986987 110.877731 213 39915ft 484kts
13-Jun-17 18:19 10.878122 110.800673 213 39914ft 484kts
13-Jun-17 18:20 10.767954 110.722814 213 39914ft 484kts
13-Jun-17 18:21 10.657875 110.645019 213 39915ft 484kts
13-Jun-17 18:22 10.547504 110.567084 213 39915ft 484kts
13-Jun-17 18:23 10.437269 110.489317 213 39915ft 484kts
13-Jun-17 18:24 10.327209 110.411739 213 39915ft 484kts
13-Jun-17 18:25 10.217754 110.334612 213 39913ft 484kts
13-Jun-17 18:26 10.107380 110.256476 213 39915ft 484kts
13-Jun-17 18:27 9.997463 110.178823 213 39916ft 484kts
13-Jun-17 18:28 9.887283 110.101069 213 39892ft 487kts
13-Jun-17 18:29 9.774361 110.021521 215 39927ft 504kts
13-Jun-17 18:30 9.658050 109.939529 214 39913ft 509kts
13-Jun-17 18:31 9.514922 109.838777 214 39913ft 511kts
13-Jun-17 18:32 9.201097 109.618438 214 39915ft 509kts
13-Jun-17 18:33 8.902782 109.409445 214 39918ft 508kts
13-Jun-17 18:34 8.627661 109.217708 214 39914ft 507kts
13-Jun-17 18:35 8.354120 109.027707 214 39914ft 507kts
13-Jun-17 18:35 8.122447 108.867057 213 39915ft 506kts
13-Jun-17 18:36 7.841554 108.672641 213 39917ft 505kts
13-Jun-17 18:38 7.500529 108.436993 213 39915ft 505kts
13-Jun-17 18:38 7.251516 108.265071 213 39914ft 505kts
13-Jun-17 18:40 6.892838 108.016381 213 39915ft 504kts
13-Jun-17 18:40 6.620603 107.827003 213 39914ft 503kts
13-Jun-17 18:41 6.302049 107.605634 213 39916ft 502kts
13-Jun-17 18:42 6.046101 107.428005 213 39943ft 501kts
13-Jun-17 18:43 5.799553 107.257067 213 39940ft 502kts
13-Jun-17 18:44 5.542014 107.078728 213 39940ft 500kts
13-Jun-17 18:45 5.284867 106.900880 213 39941ft 500kts
13-Jun-17 18:46 5.125665 106.790852 212 39942ft 499kts
13-Jun-17 18:47 5.016690 106.715582 212 39942ft 499kts
13-Jun-17 18:48 4.906024 106.639169 212 39943ft 498kts
13-Jun-17 18:49 4.789285 106.558695 212 39946ft 498kts
13-Jun-17 18:50 4.675291 106.480056 212 39969ft 498kts
13-Jun-17 18:51 4.562247 106.402118 212 39961ft 498kts
13-Jun-17 18:52 4.365946 106.266675 212 39991ft 498kts
13-Jun-17 18:53 4.181839 106.082045 230 39978ft 498kts
13-Jun-17 18:54 4.008052 105.922248 214 40017ft 498kts
13-Jun-17 18:55 3.897448 105.840899 214 40004ft 495kts
13-Jun-17 18:56 3.787259 105.759124 214 40001ft 495kts
13-Jun-17 18:57 3.678833 105.678526 214 39025ft 475kts
13-Jun-17 18:58 3.575303 105.601651 214 37980ft 456kts
13-Jun-17 18:59 3.474848 105.527057 214 36389ft 453kts
13-Jun-17 19:00 3.373500 105.451843 214 34390ft 459kts
13-Jun-17 19:01 3.270678 105.375534 214 32379ft 464kts
13-Jun-17 19:02 3.168059 105.299266 214 30337ft 467kts
13-Jun-17 19:03 3.063906 105.222021 214 28238ft 468kts
13-Jun-17 19:04 2.959501 105.144595 215 26127ft 468kts
13-Jun-17 19:05 2.859239 105.070323 215 24087ft 467kts
13-Jun-17 19:06 2.755722 104.993629 216 21892ft 454kts
13-Jun-17 19:07 2.658068 104.921255 216 19612ft 423kts
13-Jun-17 19:08 2.567951 104.854459 216 17317ft 387kts
13-Jun-17 19:09 2.485083 104.793055 216 15061ft 361kts
13-Jun-17 19:10 2.406966 104.735196 216 12833ft 342kts
13-Jun-17 19:11 2.332235 104.679838 216 10619ft 328kts
13-Jun-17 19:12 2.261083 104.627156 216 8760ft 306kts
13-Jun-17 19:13 2.195676 104.578731 215 7373ft 281kts
13-Jun-17 19:14 2.134674 104.533582 215 6341ft 267kts
13-Jun-17 19:15 2.075941 104.490111 215 5344ft 263kts
13-Jun-17 19:16 1.997979 104.432405 215 4092ft 267kts
13-Jun-17 19:17 1.888946 104.351715 215 2734ft 255kts
13-Jun-17 19:18 1.787970 104.276989 215 2543ft 268kts
13-Jun-17 19:19 1.729045 104.233341 215 2541ft 261kts
13-Jun-17 19:20 1.671053 104.190465 215 2540ft 259kts
13-Jun-17 19:21 1.613620 104.147270 216 2537ft 255kts
13-Jun-17 19:22 1.560328 104.107428 214 2354ft 238kts
13-Jun-17 19:23 1.512165 104.067935 219 2023ft 203kts
13-Jun-17 19:24 1.468098 104.044216 203 1990ft 163kts
13-Jun-17 19:25 1.428593 104.027211 202 1464ft 140kts
13-Jun-17 19:26 1.393875 104.012659 202 775ft 135kts
13-Jun-17 19:27 1.358846 103.997731 202 44ft 137kts
13-Jun-17 19:28 1.343458 103.990152 263 36ft 25kts
13-Jun-17 19:29 1.345907 103.988498 292 43ft 9kts
13-Jun-17 19:30 1.368543 104.001778 201 204ft 138kts

Navigation Log

Ident Type
Flight plan parsing failed, navigation log unavailable